sensor_id;sensor_type;location;lat;lon;timestamp;temperature;humidity
75296;DHT22;64623;44.738;37.804;2023-09-08T00:00:01;3.32;118.99
75296;DHT22;64623;44.738;37.804;2023-09-08T00:01:05;3.32;118.99
75296;DHT22;64623;44.738;37.804;2023-09-08T00:02:08;3.32;118.99
75296;DHT22;64623;44.738;37.804;2023-09-08T00:03:12;3.30;118.99
75296;DHT22;64623;44.738;37.804;2023-09-08T00:04:15;3.32;118.99
75296;DHT22;64623;44.738;37.804;2023-09-08T00:05:18;3.34;118.99
75296;DHT22;64623;44.738;37.804;2023-09-08T00:06:21;3.33;118.99
75296;DHT22;64623;44.738;37.804;2023-09-08T00:07:24;3.36;118.99
75296;DHT22;64623;44.738;37.804;2023-09-08T00:08:27;3.34;118.99
75296;DHT22;64623;44.738;37.804;2023-09-08T00:09:30;3.38;118.99
75296;DHT22;64623;44.738;37.804;2023-09-08T00:10:32;3.41;118.99
75296;DHT22;64623;44.738;37.804;2023-09-08T00:11:35;3.43;118.99
75296;DHT22;64623;44.738;37.804;2023-09-08T00:12:38;3.42;118.99
75296;DHT22;64623;44.738;37.804;2023-09-08T00:13:41;3.42;118.99
75296;DHT22;64623;44.738;37.804;2023-09-08T00:14:44;3.41;118.99
75296;DHT22;64623;44.738;37.804;2023-09-08T00:15:47;3.41;118.99
75296;DHT22;64623;44.738;37.804;2023-09-08T00:16:52;3.36;118.99
75296;DHT22;64623;44.738;37.804;2023-09-08T00:17:57;3.35;118.99
75296;DHT22;64623;44.738;37.804;2023-09-08T00:19:00;3.30;118.99
75296;DHT22;64623;44.738;37.804;2023-09-08T00:20:03;3.31;118.99
75296;DHT22;64623;44.738;37.804;2023-09-08T00:21:15;3.28;118.99
75296;DHT22;64623;44.738;37.804;2023-09-08T00:22:18;3.24;118.99
75296;DHT22;64623;44.738;37.804;2023-09-08T00:23:21;3.26;118.99
75296;DHT22;64623;44.738;37.804;2023-09-08T00:24:24;3.28;118.99
75296;DHT22;64623;44.738;37.804;2023-09-08T00:25:27;3.31;118.99
75296;DHT22;64623;44.738;37.804;2023-09-08T00:26:30;3.28;118.99
75296;DHT22;64623;44.738;37.804;2023-09-08T00:27:33;3.29;118.99
75296;DHT22;64623;44.738;37.804;2023-09-08T00:28:36;3.25;118.99
75296;DHT22;64623;44.738;37.804;2023-09-08T00:29:40;3.21;118.99
75296;DHT22;64623;44.738;37.804;2023-09-08T00:30:42;3.19;118.99
75296;DHT22;64623;44.738;37.804;2023-09-08T00:31:45;3.14;118.99
75296;DHT22;64623;44.738;37.804;2023-09-08T00:32:48;3.15;118.99
75296;DHT22;64623;44.738;37.804;2023-09-08T00:33:51;3.15;118.99
75296;DHT22;64623;44.738;37.804;2023-09-08T00:34:54;3.20;118.99
75296;DHT22;64623;44.738;37.804;2023-09-08T00:35:57;3.19;118.99
75296;DHT22;64623;44.738;37.804;2023-09-08T00:37:01;3.24;118.99
75296;DHT22;64623;44.738;37.804;2023-09-08T00:38:09;3.24;118.99
75296;DHT22;64623;44.738;37.804;2023-09-08T00:39:12;3.30;118.99
75296;DHT22;64623;44.738;37.804;2023-09-08T00:40:15;3.28;118.99
75296;DHT22;64623;44.738;37.804;2023-09-08T00:41:19;3.27;118.99
75296;DHT22;64623;44.738;37.804;2023-09-08T00:42:22;3.30;118.99
75296;DHT22;64623;44.738;37.804;2023-09-08T00:43:25;3.30;118.99
75296;DHT22;64623;44.738;37.804;2023-09-08T00:44:28;3.26;118.99
75296;DHT22;64623;44.738;37.804;2023-09-08T00:45:31;3.28;118.99
75296;DHT22;64623;44.738;37.804;2023-09-08T00:46:35;3.26;118.99
75296;DHT22;64623;44.738;37.804;2023-09-08T00:47:38;3.20;118.99
75296;DHT22;64623;44.738;37.804;2023-09-08T00:48:41;3.19;118.99
75296;DHT22;64623;44.738;37.804;2023-09-08T00:49:44;3.19;118.99
75296;DHT22;64623;44.738;37.804;2023-09-08T00:50:48;3.18;118.99
75296;DHT22;64623;44.738;37.804;2023-09-08T00:51:51;3.15;118.99
75296;DHT22;64623;44.738;37.804;2023-09-08T00:52:54;3.15;118.99
75296;DHT22;64623;44.738;37.804;2023-09-08T00:53:57;3.12;118.99
75296;DHT22;64623;44.738;37.804;2023-09-08T00:55:00;3.12;118.99
75296;DHT22;64623;44.738;37.804;2023-09-08T00:56:04;3.11;118.99
75296;DHT22;64623;44.738;37.804;2023-09-08T00:57:09;3.10;118.99
75296;DHT22;64623;44.738;37.804;2023-09-08T00:58:12;3.13;118.99
75296;DHT22;64623;44.738;37.804;2023-09-08T00:59:15;3.09;118.99
75296;DHT22;64623;44.738;37.804;2023-09-08T01:00:18;3.12;118.99
75296;DHT22;64623;44.738;37.804;2023-09-08T01:01:21;3.13;118.99
75296;DHT22;64623;44.738;37.804;2023-09-08T01:02:24;3.10;118.99
75296;DHT22;64623;44.738;37.804;2023-09-08T01:03:27;3.05;118.99
75296;DHT22;64623;44.738;37.804;2023-09-08T01:04:30;3.01;118.99
75296;DHT22;64623;44.738;37.804;2023-09-08T01:05:33;2.97;118.99
75296;DHT22;64623;44.738;37.804;2023-09-08T01:06:36;3.02;118.99
75296;DHT22;64623;44.738;37.804;2023-09-08T01:07:40;3.02;118.99
75296;DHT22;64623;44.738;37.804;2023-09-08T01:08:43;3.00;118.99
75296;DHT22;64623;44.738;37.804;2023-09-08T01:09:47;3.01;118.99
75296;DHT22;64623;44.738;37.804;2023-09-08T01:10:50;3.02;118.99
75296;DHT22;64623;44.738;37.804;2023-09-08T01:11:53;2.99;118.99
75296;DHT22;64623;44.738;37.804;2023-09-08T01:12:58;2.98;118.99
75296;DHT22;64623;44.738;37.804;2023-09-08T01:14:01;2.98;118.99
75296;DHT22;64623;44.738;37.804;2023-09-08T01:15:05;2.94;118.99
75296;DHT22;64623;44.738;37.804;2023-09-08T01:16:08;2.93;118.99
75296;DHT22;64623;44.738;37.804;2023-09-08T01:17:11;2.94;118.99
75296;DHT22;64623;44.738;37.804;2023-09-08T01:18:15;2.93;118.99
75296;DHT22;64623;44.738;37.804;2023-09-08T01:19:19;2.87;118.99
75296;DHT22;64623;44.738;37.804;2023-09-08T01:24:11;2.84;118.99
75296;DHT22;64623;44.738;37.804;2023-09-08T01:25:19;2.82;118.99
75296;DHT22;64623;44.738;37.804;2023-09-08T01:26:27;2.79;118.99
75296;DHT22;64623;44.738;37.804;2023-09-08T01:27:33;2.80;118.99
75296;DHT22;64623;44.738;37.804;2023-09-08T01:28:37;2.76;118.99
75296;DHT22;64623;44.738;37.804;2023-09-08T01:29:43;2.74;118.99
75296;DHT22;64623;44.738;37.804;2023-09-08T01:30:47;2.72;118.99
75296;DHT22;64623;44.738;37.804;2023-09-08T01:31:51;2.75;118.99
75296;DHT22;64623;44.738;37.804;2023-09-08T01:32:55;2.78;118.99
75296;DHT22;64623;44.738;37.804;2023-09-08T01:34:00;2.79;118.99
75296;DHT22;64623;44.738;37.804;2023-09-08T01:35:06;2.73;118.99
75296;DHT22;64623;44.738;37.804;2023-09-08T01:36:09;2.69;118.99
75296;DHT22;64623;44.738;37.804;2023-09-08T01:37:12;2.65;118.99
75296;DHT22;64623;44.738;37.804;2023-09-08T01:38:16;2.64;118.99
75296;DHT22;64623;44.738;37.804;2023-09-08T01:39:19;2.64;118.99
75296;DHT22;64623;44.738;37.804;2023-09-08T01:40:22;2.61;118.99
75296;DHT22;64623;44.738;37.804;2023-09-08T01:41:24;2.60;118.99
75296;DHT22;64623;44.738;37.804;2023-09-08T01:42:27;2.60;118.99
75296;DHT22;64623;44.738;37.804;2023-09-08T01:43:30;2.61;118.99
75296;DHT22;64623;44.738;37.804;2023-09-08T01:44:33;2.60;118.99
75296;DHT22;64623;44.738;37.804;2023-09-08T01:45:36;2.57;118.99
75296;DHT22;64623;44.738;37.804;2023-09-08T01:46:39;2.56;118.99
75296;DHT22;64623;44.738;37.804;2023-09-08T01:47:43;2.57;118.99
75296;DHT22;64623;44.738;37.804;2023-09-08T01:48:46;2.56;118.99
75296;DHT22;64623;44.738;37.804;2023-09-08T01:49:49;2.53;118.99
75296;DHT22;64623;44.738;37.804;2023-09-08T01:50:52;2.52;118.99
75296;DHT22;64623;44.738;37.804;2023-09-08T01:51:55;2.50;118.99
75296;DHT22;64623;44.738;37.804;2023-09-08T01:52:58;2.44;118.99
75296;DHT22;64623;44.738;37.804;2023-09-08T01:54:02;2.46;118.99
75296;DHT22;64623;44.738;37.804;2023-09-08T01:55:06;2.44;118.99
75296;DHT22;64623;44.738;37.804;2023-09-08T01:56:10;2.43;118.99
75296;DHT22;64623;44.738;37.804;2023-09-08T01:57:13;2.45;118.99
75296;DHT22;64623;44.738;37.804;2023-09-08T01:58:16;2.47;118.99
75296;DHT22;64623;44.738;37.804;2023-09-08T01:59:19;2.50;118.99
75296;DHT22;64623;44.738;37.804;2023-09-08T02:00:22;2.45;118.99
75296;DHT22;64623;44.738;37.804;2023-09-08T02:01:25;2.45;118.99
75296;DHT22;64623;44.738;37.804;2023-09-08T02:02:28;2.46;118.99
75296;DHT22;64623;44.738;37.804;2023-09-08T02:03:33;2.47;118.99
75296;DHT22;64623;44.738;37.804;2023-09-08T02:04:37;2.49;118.99
75296;DHT22;64623;44.738;37.804;2023-09-08T02:05:40;2.46;118.99
75296;DHT22;64623;44.738;37.804;2023-09-08T02:06:42;2.45;118.99
75296;DHT22;64623;44.738;37.804;2023-09-08T02:07:45;2.43;118.99
75296;DHT22;64623;44.738;37.804;2023-09-08T02:08:48;2.38;118.99
75296;DHT22;64623;44.738;37.804;2023-09-08T02:09:51;2.36;118.99
75296;DHT22;64623;44.738;37.804;2023-09-08T02:10:54;2.37;118.99
75296;DHT22;64623;44.738;37.804;2023-09-08T02:11:57;2.34;118.99
75296;DHT22;64623;44.738;37.804;2023-09-08T02:13:01;2.29;118.99
75296;DHT22;64623;44.738;37.804;2023-09-08T02:14:04;2.31;118.99
75296;DHT22;64623;44.738;37.804;2023-09-08T02:15:07;2.31;118.99
75296;DHT22;64623;44.738;37.804;2023-09-08T02:16:15;2.30;118.99
75296;DHT22;64623;44.738;37.804;2023-09-08T02:17:18;2.31;118.99
75296;DHT22;64623;44.738;37.804;2023-09-08T02:18:21;2.31;118.99
75296;DHT22;64623;44.738;37.804;2023-09-08T02:19:24;2.34;118.99
75296;DHT22;64623;44.738;37.804;2023-09-08T02:20:27;2.37;118.99
75296;DHT22;64623;44.738;37.804;2023-09-08T02:21:29;2.35;118.99
75296;DHT22;64623;44.738;37.804;2023-09-08T02:22:33;2.28;118.99
75296;DHT22;64623;44.738;37.804;2023-09-08T02:23:36;2.29;118.99
75296;DHT22;64623;44.738;37.804;2023-09-08T02:24:39;2.28;118.99
75296;DHT22;64623;44.738;37.804;2023-09-08T02:25:42;2.29;118.99
75296;DHT22;64623;44.738;37.804;2023-09-08T02:26:45;2.25;118.99
75296;DHT22;64623;44.738;37.804;2023-09-08T02:27:49;2.31;118.99
75296;DHT22;64623;44.738;37.804;2023-09-08T02:28:51;2.29;118.99
75296;DHT22;64623;44.738;37.804;2023-09-08T02:29:54;2.27;118.99
75296;DHT22;64623;44.738;37.804;2023-09-08T02:30:57;2.24;118.99
75296;DHT22;64623;44.738;37.804;2023-09-08T02:32:00;2.26;118.99
75296;DHT22;64623;44.738;37.804;2023-09-08T02:33:04;2.29;118.99
75296;DHT22;64623;44.738;37.804;2023-09-08T02:34:08;2.27;118.99
75296;DHT22;64623;44.738;37.804;2023-09-08T02:35:12;2.27;118.99
75296;DHT22;64623;44.738;37.804;2023-09-08T02:36:15;2.25;118.99
75296;DHT22;64623;44.738;37.804;2023-09-08T02:37:18;2.24;118.99
75296;DHT22;64623;44.738;37.804;2023-09-08T02:38:21;2.15;118.99
75296;DHT22;64623;44.738;37.804;2023-09-08T02:39:24;2.19;118.99
75296;DHT22;64623;44.738;37.804;2023-09-08T02:40:29;2.13;118.99
75296;DHT22;64623;44.738;37.804;2023-09-08T02:41:32;2.10;118.99
75296;DHT22;64623;44.738;37.804;2023-09-08T02:42:36;2.09;118.99
75296;DHT22;64623;44.738;37.804;2023-09-08T02:43:39;2.10;118.99
75296;DHT22;64623;44.738;37.804;2023-09-08T02:44:42;2.11;118.99
75296;DHT22;64623;44.738;37.804;2023-09-08T02:45:47;2.11;118.99
75296;DHT22;64623;44.738;37.804;2023-09-08T02:46:49;2.21;118.99
75296;DHT22;64623;44.738;37.804;2023-09-08T02:47:52;2.10;118.99
75296;DHT22;64623;44.738;37.804;2023-09-08T02:48:55;2.07;118.99
75296;DHT22;64623;44.738;37.804;2023-09-08T02:49:58;2.07;118.99
75296;DHT22;64623;44.738;37.804;2023-09-08T02:51:01;2.06;118.99
75296;DHT22;64623;44.738;37.804;2023-09-08T02:52:04;2.10;118.99
75296;DHT22;64623;44.738;37.804;2023-09-08T02:53:07;2.10;118.99
75296;DHT22;64623;44.738;37.804;2023-09-08T02:54:10;2.14;118.99
75296;DHT22;64623;44.738;37.804;2023-09-08T02:55:13;2.14;118.99
75296;DHT22;64623;44.738;37.804;2023-09-08T02:56:16;2.14;118.99
75296;DHT22;64623;44.738;37.804;2023-09-08T02:57:20;2.13;118.99
75296;DHT22;64623;44.738;37.804;2023-09-08T02:58:23;2.09;118.99
75296;DHT22;64623;44.738;37.804;2023-09-08T02:59:26;2.13;118.99
75296;DHT22;64623;44.738;37.804;2023-09-08T03:00:29;2.13;118.99
75296;DHT22;64623;44.738;37.804;2023-09-08T03:01:32;2.13;118.99
75296;DHT22;64623;44.738;37.804;2023-09-08T03:02:35;2.11;118.99
75296;DHT22;64623;44.738;37.804;2023-09-08T03:03:38;2.11;118.99
75296;DHT22;64623;44.738;37.804;2023-09-08T03:04:41;2.09;118.99
75296;DHT22;64623;44.738;37.804;2023-09-08T03:05:45;2.08;118.99
75296;DHT22;64623;44.738;37.804;2023-09-08T03:06:49;2.06;118.99
75296;DHT22;64623;44.738;37.804;2023-09-08T03:07:51;2.01;118.99
75296;DHT22;64623;44.738;37.804;2023-09-08T03:08:55;2.06;118.99
75296;DHT22;64623;44.738;37.804;2023-09-08T03:09:58;2.03;118.99
75296;DHT22;64623;44.738;37.804;2023-09-08T03:11:56;2.05;118.99
75296;DHT22;64623;44.738;37.804;2023-09-08T03:13:00;2.03;118.99
75296;DHT22;64623;44.738;37.804;2023-09-08T03:14:03;2.06;118.99
75296;DHT22;64623;44.738;37.804;2023-09-08T03:15:06;2.05;118.99
75296;DHT22;64623;44.738;37.804;2023-09-08T03:16:10;2.03;118.99
75296;DHT22;64623;44.738;37.804;2023-09-08T03:17:13;2.06;118.99
75296;DHT22;64623;44.738;37.804;2023-09-08T03:18:16;2.06;118.99
75296;DHT22;64623;44.738;37.804;2023-09-08T03:19:19;2.07;118.99
75296;DHT22;64623;44.738;37.804;2023-09-08T03:20:22;2.09;118.99
75296;DHT22;64623;44.738;37.804;2023-09-08T03:21:24;2.07;118.99
75296;DHT22;64623;44.738;37.804;2023-09-08T03:22:28;2.10;118.99
75296;DHT22;64623;44.738;37.804;2023-09-08T03:23:30;2.10;118.99
75296;DHT22;64623;44.738;37.804;2023-09-08T03:24:33;2.07;118.99
75296;DHT22;64623;44.738;37.804;2023-09-08T03:25:36;2.03;118.99
75296;DHT22;64623;44.738;37.804;2023-09-08T03:26:41;2.05;118.99
75296;DHT22;64623;44.738;37.804;2023-09-08T03:27:44;2.03;118.99
75296;DHT22;64623;44.738;37.804;2023-09-08T03:28:46;2.05;118.99
75296;DHT22;64623;44.738;37.804;2023-09-08T03:29:49;2.03;118.99
75296;DHT22;64623;44.738;37.804;2023-09-08T03:30:52;2.02;118.99
75296;DHT22;64623;44.738;37.804;2023-09-08T03:31:55;2.00;118.99
75296;DHT22;64623;44.738;37.804;2023-09-08T03:32:58;1.98;118.99
75296;DHT22;64623;44.738;37.804;2023-09-08T03:34:01;1.97;118.99
75296;DHT22;64623;44.738;37.804;2023-09-08T03:35:05;1.97;118.99
75296;DHT22;64623;44.738;37.804;2023-09-08T03:36:09;1.99;118.99
75296;DHT22;64623;44.738;37.804;2023-09-08T03:37:12;2.00;118.99
75296;DHT22;64623;44.738;37.804;2023-09-08T03:38:18;1.99;118.99
75296;DHT22;64623;44.738;37.804;2023-09-08T03:39:21;1.98;118.99
75296;DHT22;64623;44.738;37.804;2023-09-08T03:40:24;1.98;118.99
75296;DHT22;64623;44.738;37.804;2023-09-08T03:41:27;1.97;118.99
75296;DHT22;64623;44.738;37.804;2023-09-08T03:42:30;1.96;118.99
75296;DHT22;64623;44.738;37.804;2023-09-08T03:43:33;1.97;118.99
75296;DHT22;64623;44.738;37.804;2023-09-08T03:44:36;1.98;118.99
75296;DHT22;64623;44.738;37.804;2023-09-08T03:45:39;1.99;118.99
75296;DHT22;64623;44.738;37.804;2023-09-08T03:46:42;1.99;118.99
75296;DHT22;64623;44.738;37.804;2023-09-08T03:47:45;1.98;118.99
75296;DHT22;64623;44.738;37.804;2023-09-08T03:48:48;1.95;118.99
75296;DHT22;64623;44.738;37.804;2023-09-08T03:49:51;1.97;118.99
75296;DHT22;64623;44.738;37.804;2023-09-08T03:50:54;2.00;118.99
75296;DHT22;64623;44.738;37.804;2023-09-08T03:51:57;2.01;118.99
75296;DHT22;64623;44.738;37.804;2023-09-08T03:53:00;2.06;118.99
75296;DHT22;64623;44.738;37.804;2023-09-08T03:54:03;2.07;118.99
75296;DHT22;64623;44.738;37.804;2023-09-08T03:55:06;2.05;118.99
75296;DHT22;64623;44.738;37.804;2023-09-08T03:56:09;2.07;118.99
75296;DHT22;64623;44.738;37.804;2023-09-08T03:57:12;2.06;118.99
75296;DHT22;64623;44.738;37.804;2023-09-08T03:58:15;2.05;118.99
75296;DHT22;64623;44.738;37.804;2023-09-08T03:59:18;2.08;118.99
75296;DHT22;64623;44.738;37.804;2023-09-08T04:00:21;2.09;118.99
75296;DHT22;64623;44.738;37.804;2023-09-08T04:01:24;2.07;118.99
75296;DHT22;64623;44.738;37.804;2023-09-08T04:02:27;2.08;118.99
75296;DHT22;64623;44.738;37.804;2023-09-08T04:03:30;2.09;118.99
75296;DHT22;64623;44.738;37.804;2023-09-08T04:04:33;2.09;118.99
75296;DHT22;64623;44.738;37.804;2023-09-08T04:05:36;2.07;118.99
75296;DHT22;64623;44.738;37.804;2023-09-08T04:06:39;2.06;118.99
75296;DHT22;64623;44.738;37.804;2023-09-08T04:07:42;2.07;118.99
75296;DHT22;64623;44.738;37.804;2023-09-08T04:08:45;2.07;118.99
75296;DHT22;64623;44.738;37.804;2023-09-08T04:09:48;2.11;118.99
75296;DHT22;64623;44.738;37.804;2023-09-08T04:10:51;2.16;118.99
75296;DHT22;64623;44.738;37.804;2023-09-08T04:11:54;2.19;118.99
75296;DHT22;64623;44.738;37.804;2023-09-08T04:12:57;2.16;118.99
75296;DHT22;64623;44.738;37.804;2023-09-08T04:14:00;2.21;118.99
75296;DHT22;64623;44.738;37.804;2023-09-08T04:15:03;2.23;118.99
75296;DHT22;64623;44.738;37.804;2023-09-08T04:16:06;2.26;118.99
75296;DHT22;64623;44.738;37.804;2023-09-08T04:17:09;2.22;118.99
75296;DHT22;64623;44.738;37.804;2023-09-08T04:18:12;2.24;118.99
75296;DHT22;64623;44.738;37.804;2023-09-08T04:19:15;2.25;118.99
75296;DHT22;64623;44.738;37.804;2023-09-08T04:20:18;2.29;118.99
75296;DHT22;64623;44.738;37.804;2023-09-08T04:21:21;2.30;118.99
75296;DHT22;64623;44.738;37.804;2023-09-08T04:22:24;2.31;118.99
75296;DHT22;64623;44.738;37.804;2023-09-08T04:23:27;2.35;118.99
75296;DHT22;64623;44.738;37.804;2023-09-08T04:24:29;2.32;118.99
75296;DHT22;64623;44.738;37.804;2023-09-08T04:25:37;2.36;118.99
75296;DHT22;64623;44.738;37.804;2023-09-08T04:26:40;2.39;118.99
75296;DHT22;64623;44.738;37.804;2023-09-08T04:27:43;2.42;118.99
75296;DHT22;64623;44.738;37.804;2023-09-08T04:28:47;2.43;118.99
75296;DHT22;64623;44.738;37.804;2023-09-08T04:29:50;2.41;118.99
75296;DHT22;64623;44.738;37.804;2023-09-08T04:30:53;2.44;118.99
75296;DHT22;64623;44.738;37.804;2023-09-08T04:31:56;2.44;118.99
75296;DHT22;64623;44.738;37.804;2023-09-08T04:32:59;2.46;118.99
75296;DHT22;64623;44.738;37.804;2023-09-08T04:34:02;2.50;118.99
75296;DHT22;64623;44.738;37.804;2023-09-08T04:35:06;2.52;118.99
75296;DHT22;64623;44.738;37.804;2023-09-08T04:36:09;2.56;118.99
75296;DHT22;64623;44.738;37.804;2023-09-08T04:37:13;2.59;118.99
75296;DHT22;64623;44.738;37.804;2023-09-08T04:38:17;2.64;118.99
75296;DHT22;64623;44.738;37.804;2023-09-08T04:39:20;2.68;118.99
75296;DHT22;64623;44.738;37.804;2023-09-08T04:40:23;2.71;118.99
75296;DHT22;64623;44.738;37.804;2023-09-08T04:41:26;2.71;118.99
75296;DHT22;64623;44.738;37.804;2023-09-08T04:42:29;2.75;118.99
75296;DHT22;64623;44.738;37.804;2023-09-08T04:43:32;2.82;118.99
75296;DHT22;64623;44.738;37.804;2023-09-08T04:44:36;2.82;118.99
75296;DHT22;64623;44.738;37.804;2023-09-08T04:45:38;2.85;118.99
75296;DHT22;64623;44.738;37.804;2023-09-08T04:46:41;2.85;118.99
75296;DHT22;64623;44.738;37.804;2023-09-08T04:47:44;2.91;118.99
75296;DHT22;64623;44.738;37.804;2023-09-08T04:48:51;2.94;118.99
75296;DHT22;64623;44.738;37.804;2023-09-08T04:49:53;3.00;118.99
75296;DHT22;64623;44.738;37.804;2023-09-08T04:50:57;3.08;118.99
75296;DHT22;64623;44.738;37.804;2023-09-08T04:52:00;3.08;118.99
75296;DHT22;64623;44.738;37.804;2023-09-08T04:53:04;3.12;118.99
75296;DHT22;64623;44.738;37.804;2023-09-08T04:54:07;3.17;118.99
75296;DHT22;64623;44.738;37.804;2023-09-08T04:55:10;3.21;118.99
75296;DHT22;64623;44.738;37.804;2023-09-08T04:56:13;3.19;118.99
75296;DHT22;64623;44.738;37.804;2023-09-08T04:57:17;3.23;118.99
75296;DHT22;64623;44.738;37.804;2023-09-08T04:58:24;3.29;118.99
75296;DHT22;64623;44.738;37.804;2023-09-08T04:59:28;3.29;118.99
75296;DHT22;64623;44.738;37.804;2023-09-08T05:00:31;3.33;118.99
75296;DHT22;64623;44.738;37.804;2023-09-08T05:01:37;3.40;118.99
75296;DHT22;64623;44.738;37.804;2023-09-08T05:02:41;3.40;118.99
75296;DHT22;64623;44.738;37.804;2023-09-08T05:03:45;3.47;118.99
75296;DHT22;64623;44.738;37.804;2023-09-08T05:04:48;3.47;118.99
75296;DHT22;64623;44.738;37.804;2023-09-08T05:05:51;3.47;118.99
75296;DHT22;64623;44.738;37.804;2023-09-08T05:06:54;3.60;118.99
75296;DHT22;64623;44.738;37.804;2023-09-08T05:07:57;3.70;118.99
75296;DHT22;64623;44.738;37.804;2023-09-08T05:09:00;3.70;118.99
75296;DHT22;64623;44.738;37.804;2023-09-08T05:10:05;3.67;118.99
75296;DHT22;64623;44.738;37.804;2023-09-08T05:11:10;3.59;118.99
75296;DHT22;64623;44.738;37.804;2023-09-08T05:12:13;3.65;118.99
75296;DHT22;64623;44.738;37.804;2023-09-08T05:13:17;3.72;118.99
75296;DHT22;64623;44.738;37.804;2023-09-08T05:14:25;3.83;118.99
75296;DHT22;64623;44.738;37.804;2023-09-08T05:15:29;3.87;118.99
75296;DHT22;64623;44.738;37.804;2023-09-08T05:16:40;3.99;118.99
75296;DHT22;64623;44.738;37.804;2023-09-08T05:17:52;4.01;118.99
75296;DHT22;64623;44.738;37.804;2023-09-08T05:18:57;4.08;118.99
75296;DHT22;64623;44.738;37.804;2023-09-08T05:19:59;4.07;118.99
75296;DHT22;64623;44.738;37.804;2023-09-08T05:21:05;4.09;118.99
75296;DHT22;64623;44.738;37.804;2023-09-08T05:22:08;4.03;118.99
75296;DHT22;64623;44.738;37.804;2023-09-08T05:23:11;4.02;118.99
75296;DHT22;64623;44.738;37.804;2023-09-08T05:24:14;4.08;118.99
75296;DHT22;64623;44.738;37.804;2023-09-08T05:25:17;4.14;118.99
75296;DHT22;64623;44.738;37.804;2023-09-08T05:26:20;4.12;118.99
75296;DHT22;64623;44.738;37.804;2023-09-08T05:27:23;4.14;118.99
75296;DHT22;64623;44.738;37.804;2023-09-08T05:28:26;4.26;118.99
75296;DHT22;64623;44.738;37.804;2023-09-08T05:29:29;4.41;118.99
75296;DHT22;64623;44.738;37.804;2023-09-08T05:30:32;4.53;118.99
75296;DHT22;64623;44.738;37.804;2023-09-08T05:31:35;4.57;118.99
75296;DHT22;64623;44.738;37.804;2023-09-08T05:32:38;4.69;118.99
75296;DHT22;64623;44.738;37.804;2023-09-08T05:33:41;4.69;118.99
75296;DHT22;64623;44.738;37.804;2023-09-08T05:34:45;4.78;118.99
75296;DHT22;64623;44.738;37.804;2023-09-08T05:35:48;4.80;118.99
75296;DHT22;64623;44.738;37.804;2023-09-08T05:36:51;4.91;118.99
75296;DHT22;64623;44.738;37.804;2023-09-08T05:37:54;5.00;118.99
75296;DHT22;64623;44.738;37.804;2023-09-08T05:38:57;5.01;118.99
75296;DHT22;64623;44.738;37.804;2023-09-08T05:40:00;4.89;118.99
75296;DHT22;64623;44.738;37.804;2023-09-08T05:41:04;5.00;118.99
75296;DHT22;64623;44.738;37.804;2023-09-08T05:42:07;4.96;118.99
75296;DHT22;64623;44.738;37.804;2023-09-08T05:43:10;5.08;118.99
75296;DHT22;64623;44.738;37.804;2023-09-08T05:44:13;5.15;118.99
75296;DHT22;64623;44.738;37.804;2023-09-08T05:45:16;5.26;118.99
75296;DHT22;64623;44.738;37.804;2023-09-08T05:46:19;5.22;118.99
75296;DHT22;64623;44.738;37.804;2023-09-08T05:47:22;5.25;118.99
75296;DHT22;64623;44.738;37.804;2023-09-08T05:48:25;5.30;118.99
75296;DHT22;64623;44.738;37.804;2023-09-08T05:49:28;5.28;118.99
75296;DHT22;64623;44.738;37.804;2023-09-08T05:50:31;5.27;118.99
75296;DHT22;64623;44.738;37.804;2023-09-08T05:51:34;5.31;118.99
75296;DHT22;64623;44.738;37.804;2023-09-08T05:52:37;5.43;118.99
75296;DHT22;64623;44.738;37.804;2023-09-08T05:53:41;5.41;118.99
75296;DHT22;64623;44.738;37.804;2023-09-08T05:54:45;5.49;118.99
75296;DHT22;64623;44.738;37.804;2023-09-08T05:55:47;5.64;118.99
75296;DHT22;64623;44.738;37.804;2023-09-08T05:56:51;5.75;118.99
75296;DHT22;64623;44.738;37.804;2023-09-08T05:57:54;5.75;118.99
75296;DHT22;64623;44.738;37.804;2023-09-08T05:58:57;5.77;118.99
75296;DHT22;64623;44.738;37.804;2023-09-08T06:00:04;5.82;118.99
75296;DHT22;64623;44.738;37.804;2023-09-08T06:01:15;5.91;118.99
75296;DHT22;64623;44.738;37.804;2023-09-08T06:02:18;5.84;118.99
75296;DHT22;64623;44.738;37.804;2023-09-08T06:03:24;5.85;118.99
75296;DHT22;64623;44.738;37.804;2023-09-08T06:04:27;5.84;118.99
75296;DHT22;64623;44.738;37.804;2023-09-08T06:05:30;6.02;118.99
75296;DHT22;64623;44.738;37.804;2023-09-08T06:06:33;5.98;118.99
75296;DHT22;64623;44.738;37.804;2023-09-08T06:07:36;5.93;118.99
75296;DHT22;64623;44.738;37.804;2023-09-08T06:08:40;5.91;118.99
75296;DHT22;64623;44.738;37.804;2023-09-08T06:09:43;5.95;118.99
75296;DHT22;64623;44.738;37.804;2023-09-08T06:10:47;6.02;118.99
75296;DHT22;64623;44.738;37.804;2023-09-08T06:11:50;6.15;118.99
75296;DHT22;64623;44.738;37.804;2023-09-08T06:12:53;6.22;118.99
75296;DHT22;64623;44.738;37.804;2023-09-08T06:13:56;6.28;118.99
75296;DHT22;64623;44.738;37.804;2023-09-08T06:15:05;6.28;118.99
75296;DHT22;64623;44.738;37.804;2023-09-08T06:16:08;6.23;118.99
75296;DHT22;64623;44.738;37.804;2023-09-08T06:17:12;6.25;118.99
75296;DHT22;64623;44.738;37.804;2023-09-08T06:18:16;6.39;118.99
75296;DHT22;64623;44.738;37.804;2023-09-08T06:19:19;6.36;118.99
75296;DHT22;64623;44.738;37.804;2023-09-08T06:20:22;6.31;118.99
75296;DHT22;64623;44.738;37.804;2023-09-08T06:21:27;6.35;118.99
75296;DHT22;64623;44.738;37.804;2023-09-08T06:22:30;6.45;118.99
75296;DHT22;64623;44.738;37.804;2023-09-08T06:23:34;6.58;118.99
75296;DHT22;64623;44.738;37.804;2023-09-08T06:24:38;6.65;118.99
75296;DHT22;64623;44.738;37.804;2023-09-08T06:25:41;6.65;118.99
75296;DHT22;64623;44.738;37.804;2023-09-08T06:26:45;6.60;118.99
75296;DHT22;64623;44.738;37.804;2023-09-08T06:27:48;6.66;118.99
75296;DHT22;64623;44.738;37.804;2023-09-08T06:28:51;6.75;118.99
75296;DHT22;64623;44.738;37.804;2023-09-08T06:29:54;6.80;118.99
75296;DHT22;64623;44.738;37.804;2023-09-08T06:30:58;6.95;118.99
75296;DHT22;64623;44.738;37.804;2023-09-08T06:32:02;6.96;118.99
75296;DHT22;64623;44.738;37.804;2023-09-08T06:33:05;7.02;118.99
75296;DHT22;64623;44.738;37.804;2023-09-08T06:34:08;6.98;118.99
75296;DHT22;64623;44.738;37.804;2023-09-08T06:35:11;7.07;118.99
75296;DHT22;64623;44.738;37.804;2023-09-08T06:36:15;7.09;118.99
75296;DHT22;64623;44.738;37.804;2023-09-08T06:37:18;7.18;118.99
75296;DHT22;64623;44.738;37.804;2023-09-08T06:38:21;7.20;118.99